Bookmark and Share
Track history (hours):
 

Fegulus

Last reported at 2014-Mar-09 04:33 UTC. Time now 2014-Apr-23 06:47 UTC.
Position N 16°38' W 061°60'.
Warning: this ship's position is 45 days out of date.

Length 151 m; draft 6.6 m.

Type: Ship. MMSI: 518369000.

NotesDate/timePositionNaut miles runAvg speedWind from/ knotsBaromVisibWave heightAir tempDewpointWater temp
2014-Mar-09 04:33N 16°38' W 061°60'1818.1
2014-Mar-09 03:33N 16°45' W 061°43'1818.2
2014-Mar-09 02:33N 16°55' W 061°27'1818.3
2014-Mar-09 01:33N 17°04' W 061°10'  
2014-Mar-04 03:04N 35°27' W 027°11'6617.9
2014-Mar-03 23:22N 35°57' W 025°58'1517.9
2014-Mar-03 22:33N 36°04' W 025°43'1817.7
2014-Mar-03 21:33N 36°13' W 025°24'1818.1
2014-Mar-03 20:33N 36°21' W 025°03'1818.1
2014-Mar-03 19:33N 36°29' W 024°43'1818.0
2014-Mar-03 18:33N 36°37' W 024°23'1817.8
2014-Mar-03 17:33N 36°45' W 024°03'1817.7
2014-Mar-03 16:33N 36°52' W 023°43'1817.4
2014-Mar-03 15:32N 37°00' W 023°23'1717.3
2014-Mar-03 14:33N 37°09' W 023°05'2017.4
2014-Mar-03 13:23N 37°20' W 022°44'1917.6
2014-Mar-03 12:18N 37°31' W 022°23'1517.5
2014-Mar-03 11:27N 37°39' W 022°08'7317.6
2014-Mar-03 07:18N 38°24' W 020°56'5117.6
2014-Mar-03 04:24N 39°01' W 020°11'  
2014-Feb-28 04:09N 50°31' E 000°01'1118.8
2014-Feb-28 03:34N 50°34' E 000°18'1918.5
2014-Feb-28 02:33N 50°42' E 000°44'1717.4
2014-Feb-28 01:34N 50°53' E 001°06'1616.1
2014-Feb-28 00:33N 51°03' E 001°25'1414.5
2014-Feb-27 23:33N 51°13' E 001°43'1515.2
2014-Feb-27 22:34N 51°26' E 001°55'1716.7
2014-Feb-27 21:33N 51°39' E 002°12'6616.5
2014-Feb-27 17:33N 52°03' E 003°52'1111.0
2014-Feb-27 16:33N 51°58' E 004°08'1110.8
2014-Feb-27 15:34N 51°54' E 004°24'2 1.8
2014-Feb-27 14:33N 51°53' E 004°26'0 0.0
2014-Feb-27 13:33N 51°53' E 004°26'0 0.0
2014-Feb-27 12:33N 51°53' E 004°26'0 0.0
2014-Feb-27 11:33N 51°53' E 004°26'0 0.0
2014-Feb-27 10:30N 51°53' E 004°26'0 0.0
2014-Feb-27 09:30N 51°53' E 004°26'0 0.0
2014-Feb-27 08:30N 51°53' E 004°26'0 0.0
2014-Feb-27 07:30N 51°53' E 004°26'0 0.0
2014-Feb-27 06:30N 51°53' E 004°26'0 0.0
2014-Feb-27 05:33N 51°53' E 004°26'  

Dump ship's entire track history

sailing weather and tide predictions

Fegulus — E5U2319 — position and weather